This is the latest recevied weather packets stored in our database for station/object VE3MNX. If no packets are shown the sender has not sent any weather packets the latest 10 day(s).
| Time | Temp. | Humidity | Pressure | Rain* | Wind** | Luminosity | Snow |
|---|---|---|---|---|---|---|---|
| 1777966696 | 11.67° C | 94% | 999 hPa | 0 mm | - | - | - |
| 1777965798 | 12.22° C | 94% | 998.6 hPa | 0 mm | - | - | - |
| 1777964897 | 12.22° C | 94% | 999 hPa | 0 mm | - | - | - |
| 1777963997 | 13.89° C | 90% | 998.6 hPa | 0 mm | - | - | - |
| 1777963099 | 16.11° C | 83% | 999 hPa | 0 mm | - | - | - |
| 1777962198 | 15.56° C | 85% | 999.3 hPa | 0 mm | - | - | - |
| 1777961296 | 16.11° C | 83% | 999.7 hPa | 0 mm | - | - | - |
| 1777960398 | 15.56° C | 83% | 999.7 hPa | 0 mm | - | - | - |
| 1777959497 | 13.89° C | 85% | 1000 hPa | 0 mm | - | - | - |
| 1777958598 | 12.78° C | 91% | 999.7 hPa | 0 mm | - | - | - |
| 1777957696 | 12.22° C | 92% | 999.7 hPa | 0 mm | - | - | - |
| 1777956797 | 12.22° C | 92% | 999.7 hPa | 0 mm | - | - | - |
| 1777955896 | 12.22° C | 91% | 999.7 hPa | 0 mm | - | - | - |
| 1777954998 | 12.78° C | 91% | 999.7 hPa | 0 mm | - | - | - |
| 1777954099 | 12.22° C | 92% | 999.7 hPa | 0 mm | - | - | - |
| 1777953196 | 12.22° C | 90% | 1000.3 hPa | 0 mm | - | - | - |
| 1777952300 | 12.78° C | 88% | 1000.3 hPa | 0 mm | - | - | - |
| 1777951397 | 12.22° C | 91% | 1000.7 hPa | 0 mm | - | - | - |
| 1777950496 | 12.22° C | 93% | 1001 hPa | 0 mm | - | - | - |
| 1777949596 | 11.67° C | 96% | 1000.7 hPa | 0 mm | - | - | - |
| 1777948699 | 13.33° C | 92% | 1000.7 hPa | 0.25 mm | - | - | - |
| 1777947800 | 14.44° C | 91% | 1000 hPa | 1.02 mm | - | - | - |
| 1777946896 | 14.44° C | 93% | 1000.3 hPa | 2.03 mm | - | - | - |
| 1777945998 | 14.44° C | 94% | 1000.7 hPa | 3.3 mm | - | - | - |
| 1777945097 | 14.44° C | 93% | 1000.7 hPa | 3.05 mm | - | - | - |
* Rain latest hour (hover to see other rain measurements)
** Current wind speed in m/s (hover to see current wind gust speed)